Time;durP1;ratioP1;P1;durP2;ratioP2;P2;SDS_P1;SDS_P2;PMS_P1;PMS_P2;Temp;Humidity;BMP_temperature;BMP_pressure;BME280_temperature;BME280_humidity;BME280_pressure;Samples;Min_cycle;Max_cycle;Signal;HPM_P1;HPM_P2
2021/06/25 00:00:17;;;;;;;7.35;5.00;;;;;;;27.78;41.52;100752.25;4404870;32;20076;-78
2021/06/25 00:02:43;;;;;;;8.77;5.75;;;;;;;28.04;41.20;100737.75;4404016;32;20098;-78
2021/06/25 00:05:10;;;;;;;9.00;5.68;;;;;;;27.89;41.47;100736.81;4404224;32;20123;-78
2021/06/25 00:07:37;;;;;;;11.23;6.47;;;;;;;28.08;41.29;100735.31;4404637;32;20081;-78
2021/06/25 00:10:06;;;;;;;11.60;6.80;;;;;;;27.93;41.73;100729.34;4404927;32;21156;-77
2021/06/25 00:12:32;;;;;;;9.13;6.80;;;;;;;27.92;41.83;100724.13;4405030;32;20421;-78
2021/06/25 00:14:58;;;;;;;11.77;6.82;;;;;;;27.76;42.03;100731.78;4405564;32;20461;-77
2021/06/25 00:17:24;;;;;;;9.10;6.82;;;;;;;27.60;41.86;100732.13;4404763;32;20095;-78
2021/06/25 00:19:49;;;;;;;10.27;6.78;;;;;;;27.69;41.92;100729.56;4407562;32;20077;-78
2021/06/25 00:22:15;;;;;;;11.95;7.47;;;;;;;27.64;41.95;100718.91;4403964;32;20045;-76
2021/06/25 00:24:41;;;;;;;12.85;7.68;;;;;;;27.49;42.44;100720.81;4404280;32;20070;-78
2021/06/25 00:27:07;;;;;;;10.02;7.53;;;;;;;27.49;42.11;100717.94;4405481;32;20074;-77
2021/06/25 00:29:33;;;;;;;10.55;7.22;;;;;;;27.58;42.18;100723.25;4405712;32;20161;-78
2021/06/25 00:31:58;;;;;;;12.27;7.55;;;;;;;27.48;42.14;100722.94;4404267;32;20098;-77
2021/06/25 00:34:24;;;;;;;13.15;7.72;;;;;;;27.44;42.22;100715.94;4405538;32;20109;-78
2021/06/25 00:36:50;;;;;;;13.05;8.48;;;;;;;27.57;41.89;100707.22;4404559;32;20314;-77
2021/06/25 00:39:15;;;;;;;11.80;7.85;;;;;;;27.52;41.90;100711.78;4405474;32;20053;-78
2021/06/25 00:41:41;;;;;;;13.20;7.37;;;;;;;27.34;42.35;100703.25;4403247;32;20046;-77
2021/06/25 00:44:14;;;;;;;8.63;6.65;;;;;;;27.61;42.02;100691.09;4406246;32;20441;-77
2021/06/25 00:46:40;;;;;;;9.77;6.75;;;;;;;27.70;41.76;100698.56;4405353;32;20382;-78
2021/06/25 00:49:06;;;;;;;8.10;5.90;;;;;;;27.34;42.26;100691.69;4408186;32;20477;-78
2021/06/25 00:51:32;;;;;;;6.85;5.30;;;;;;;27.59;41.50;100693.78;4404871;32;20422;-78
2021/06/25 00:53:58;;;;;;;7.82;4.45;;;;;;;27.61;41.41;100684.56;4406138;32;20101;-78
2021/06/25 00:56:24;;;;;;;5.70;4.05;;;;;;;27.31;42.04;100684.16;4393828;32;20412;-78
2021/06/25 00:58:51;;;;;;;7.85;3.83;;;;;;;27.25;42.03;100684.28;4406115;32;20053;-79
2021/06/25 01:01:17;;;;;;;6.53;3.95;;;;;;;27.38;41.83;100681.37;4386628;32;20077;-76
2021/06/25 01:03:43;;;;;;;9.02;4.28;;;;;;;27.19;42.32;100672.00;4393240;32;20070;-76
2021/06/25 01:06:10;;;;;;;5.80;4.10;;;;;;;26.96;42.44;100674.56;4390415;32;20124;-76
2021/06/25 01:08:37;;;;;;;4.75;3.65;;;;;;;27.27;42.13;100667.13;4388235;32;20125;-77
2021/06/25 01:11:04;;;;;;;4.18;3.25;;;;;;;27.08;42.37;100670.13;4386446;32;20089;-78
2021/06/25 01:13:31;;;;;;;3.90;3.10;;;;;;;26.95;42.21;100670.13;4389587;32;20475;-77
2021/06/25 01:15:57;;;;;;;4.62;3.70;;;;;;;27.01;42.23;100667.13;4391068;32;20054;-76
2021/06/25 01:18:23;;;;;;;4.37;3.47;;;;;;;27.02;42.18;100662.88;4390705;32;20068;-76
2021/06/25 01:20:48;;;;;;;4.35;3.50;;;;;;;27.21;41.79;100652.00;4388409;32;20089;-76
2021/06/25 01:23:14;;;;;;;4.12;3.05;;;;;;;27.22;41.75;100656.44;4391357;32;20031;-77
2021/06/25 01:25:40;;;;;;;5.20;3.08;;;;;;;27.02;42.42;100665.78;4386578;32;20023;-77
2021/06/25 01:28:10;;;;;;;3.83;3.10;;;;;;;26.88;42.96;100652.69;4389901;32;20083;-77
2021/06/25 01:30:42;;;;;;;4.80;3.30;;;;;;;27.15;42.69;100657.09;4385696;32;20047;-76
2021/06/25 01:33:10;;;;;;;3.72;3.20;;;;;;;27.06;42.71;100648.91;4387971;32;20065;-76
2021/06/25 01:35:36;;;;;;;7.30;3.55;;;;;;;27.09;42.96;100656.47;4387588;32;20106;-76
2021/06/25 01:38:03;;;;;;;6.57;3.53;;;;;;;26.68;43.77;100653.31;4391973;32;20045;-76
2021/06/25 01:40:29;;;;;;;4.40;3.17;;;;;;;26.92;42.71;100648.13;4391690;32;20107;-76
2021/06/25 01:42:55;;;;;;;4.25;3.83;;;;;;;26.64;43.90;100638.44;4390727;32;20446;-76
2021/06/25 01:45:23;;;;;;;4.50;3.92;;;;;;;26.32;44.47;100652.09;4386846;32;20156;-76
2021/06/25 01:47:51;;;;;;;5.85;4.60;;;;;;;26.35;44.45;100640.22;4390684;32;20046;-77
2021/06/25 01:50:20;;;;;;;5.45;4.95;;;;;;;26.24;44.79;100639.63;4388026;32;20485;-75
2021/06/25 01:52:49;;;;;;;6.60;4.53;;;;;;;26.21;45.78;100647.28;4388525;32;20088;-76
2021/06/25 01:55:15;;;;;;;4.37;3.85;;;;;;;26.39;44.91;100637.03;4389285;32;20086;-76
2021/06/25 01:57:41;;;;;;;4.72;3.90;;;;;;;26.32;45.33;100640.56;4388591;32;20123;-76
2021/06/25 02:00:08;;;;;;;5.78;2.40;;;;;;;26.37;45.66;100636.78;4389071;32;20089;-75
2021/06/25 02:02:34;;;;;;;2.85;2.40;;;;;;;26.11;45.52;100649.00;4402219;32;20108;-76
2021/06/25 02:05:01;;;;;;;3.35;3.05;;;;;;;26.05;45.82;100644.69;4403666;32;20082;-77
2021/06/25 02:07:26;;;;;;;3.60;2.87;;;;;;;25.98;45.54;100640.31;4402623;32;20108;-76
2021/06/25 02:09:52;;;;;;;3.72;2.90;;;;;;;25.85;46.37;100642.31;4401743;32;20154;-76
2021/06/25 02:12:18;;;;;;;3.55;2.22;;;;;;;25.96;46.40;100645.84;4404122;32;20034;-76
2021/06/25 02:14:44;;;;;;;2.47;2.00;;;;;;;26.08;46.63;100649.34;4403810;32;20195;-75
2021/06/25 02:17:10;;;;;;;2.00;1.70;;;;;;;25.61;46.26;100630.91;4403033;32;20057;-75
2021/06/25 02:19:36;;;;;;;1.95;1.67;;;;;;;25.47;46.55;100635.03;4403675;32;20826;-76
2021/06/25 02:22:02;;;;;;;5.37;2.28;;;;;;;25.44;46.65;100625.38;4402681;32;20514;-76
2021/06/25 02:24:28;;;;;;;2.95;1.58;;;;;;;25.62;46.81;100632.47;4404247;32;20079;-75
2021/06/25 02:26:55;;;;;;;2.55;1.75;;;;;;;25.49;47.06;100633.16;4404016;32;20085;-75
2021/06/25 02:29:21;;;;;;;1.80;1.60;;;;;;;25.58;47.12;100632.75;4404779;32;20089;-75
2021/06/25 02:31:47;;;;;;;2.40;1.65;;;;;;;25.62;46.96;100635.34;4399744;32;20034;-75
2021/06/25 02:34:12;;;;;;;2.62;1.92;;;;;;;25.50;47.47;100631.84;4404019;32;20106;-74
2021/06/25 02:36:38;;;;;;;3.12;2.30;;;;;;;25.51;47.41;100629.72;4404117;32;20436;-75
2021/06/25 02:39:04;;;;;;;2.65;2.15;;;;;;;25.53;47.34;100627.09;4403445;32;20043;-76
2021/06/25 02:41:30;;;;;;;4.28;2.80;;;;;;;25.57;47.65;100630.44;4404667;32;20078;-76
2021/06/25 02:43:57;;;;;;;4.28;2.37;;;;;;;25.49;47.82;100618.75;4407939;32;21167;-76
2021/06/25 02:46:22;;;;;;;6.47;2.85;;;;;;;25.50;47.61;100625.28;4393453;32;20038;-76
2021/06/25 02:48:48;;;;;;;1.85;1.58;;;;;;;25.50;47.68;100617.44;4404986;32;20046;-76
2021/06/25 02:51:14;;;;;;;2.65;2.10;;;;;;;25.17;47.95;100614.97;4403383;32;20104;-75
2021/06/25 02:53:40;;;;;;;4.22;2.05;;;;;;;25.16;48.28;100602.66;4408481;32;20064;-75
2021/06/25 02:56:05;;;;;;;5.05;2.90;;;;;;;25.20;48.77;100608.12;4406948;32;20145;-76
2021/06/25 02:58:31;;;;;;;5.97;4.20;;;;;;;25.24;48.44;100606.50;4404163;32;20070;-76
2021/06/25 03:00:58;;;;;;;4.82;3.85;;;;;;;25.33;48.98;100609.03;4406435;32;20050;-76
2021/06/25 03:03:25;;;;;;;8.98;5.12;;;;;;;25.46;48.49;100613.31;4404988;32;20182;-75
2021/06/25 03:05:51;;;;;;;9.75;5.43;;;;;;;25.36;48.27;100607.16;4406021;32;20108;-75
2021/06/25 03:08:17;;;;;;;5.80;4.78;;;;;;;25.48;48.93;100607.75;4405553;32;20073;-75
2021/06/25 03:10:46;;;;;;;6.75;4.40;;;;;;;25.19;49.02;100610.22;4404786;32;20058;-75
2021/06/25 03:13:13;;;;;;;5.30;4.78;;;;;;;25.17;49.09;100601.34;4405295;32;20046;-75
2021/06/25 03:15:39;;;;;;;6.47;4.18;;;;;;;25.24;48.65;100597.06;4405758;32;20328;-76
2021/06/25 03:18:05;;;;;;;8.00;3.87;;;;;;;24.96;49.11;100591.66;4398032;32;20046;-76
2021/06/25 03:20:31;;;;;;;4.72;3.45;;;;;;;24.99;49.41;100590.59;4405248;32;20066;-76
2021/06/25 03:22:57;;;;;;;3.47;3.05;;;;;;;25.07;49.06;100585.75;4406571;32;20042;-76
2021/06/25 03:25:23;;;;;;;3.75;2.92;;;;;;;25.06;48.70;100586.28;4408653;32;20068;-76
2021/06/25 03:27:48;;;;;;;2.65;2.08;;;;;;;25.00;48.82;100582.72;4407528;32;20045;-75
2021/06/25 03:30:15;;;;;;;3.72;2.08;;;;;;;24.91;49.16;100588.88;4405369;32;20026;-76
2021/06/25 03:32:40;;;;;;;1.77;1.58;;;;;;;25.13;49.01;100588.59;4402064;32;20108;-75
2021/06/25 03:35:07;;;;;;;2.00;1.52;;;;;;;25.10;48.19;100587.53;4404865;32;20038;-75
2021/06/25 03:37:34;;;;;;;0.93;0.73;;;;;;;25.24;48.49;100589.22;4404668;32;20072;-75
2021/06/25 03:40:03;;;;;;;1.67;0.75;;;;;;;25.10;48.79;100596.19;4409572;32;20150;-75
2021/06/25 03:42:28;;;;;;;2.33;0.93;;;;;;;25.01;48.79;100592.94;4405142;32;20056;-75
2021/06/25 03:44:54;;;;;;;2.47;0.30;;;;;;;24.79;48.81;100593.94;4406613;32;20105;-75
2021/06/25 03:47:20;;;;;;;0.55;0.20;;;;;;;24.65;49.17;100594.38;4402598;32;20403;-75
2021/06/25 03:49:45;;;;;;;0.43;0.22;;;;;;;24.53;49.02;100587.94;4404540;32;20090;-75
2021/06/25 03:52:11;;;;;;;0.52;0.15;;;;;;;24.15;49.38;100592.00;4406569;32;20144;-75
2021/06/25 03:54:37;;;;;;;0.55;0.40;;;;;;;24.06;48.80;100594.41;4403073;32;20107;-76
2021/06/25 03:57:02;;;;;;;0.40;0.20;;;;;;;24.28;47.93;100594.22;4408571;32;20042;-75
2021/06/25 03:59:28;;;;;;;0.20;0.10;;;;;;;24.23;48.20;100595.81;4409926;32;20046;-74
2021/06/25 04:01:54;;;;;;;1.70;0.20;;;;;;;24.24;47.91;100600.25;4404982;32;20121;-75
2021/06/25 04:04:20;;;;;;;0.28;0.20;;;;;;;24.09;48.90;100599.87;4403960;32;20430;-75
2021/06/25 04:06:45;;;;;;;1.65;0.20;;;;;;;23.88;48.45;100597.94;4404923;32;20103;-76
2021/06/25 04:09:11;;;;;;;0.20;0.20;;;;;;;23.86;48.56;100601.34;4405009;32;20510;-75
2021/06/25 04:11:37;;;;;;;3.47;0.30;;;;;;;23.86;47.91;100597.66;4406151;32;20660;-76
2021/06/25 04:14:04;;;;;;;1.25;0.40;;;;;;;23.84;47.78;100601.09;4408618;32;20034;-76
2021/06/25 04:16:30;;;;;;;3.53;0.50;;;;;;;23.83;47.14;100599.53;4408527;32;20035;-76
2021/06/25 04:18:55;;;;;;;0.37;0.15;;;;;;;23.87;47.19;100610.75;4403723;32;20184;-76
2021/06/25 04:21:23;;;;;;;0.52;0.30;;;;;;;23.69;46.88;100614.28;4390885;32;20433;-76
2021/06/25 04:23:49;;;;;;;0.55;0.28;;;;;;;23.75;46.65;100607.19;4408252;32;20093;-76
2021/06/25 04:26:15;;;;;;;0.22;0.13;;;;;;;23.83;46.47;100607.38;4394205;32;20379;-76
2021/06/25 04:28:41;;;;;;;0.30;0.13;;;;;;;23.87;46.74;100605.00;4403536;32;20107;-76
2021/06/25 04:31:08;;;;;;;0.57;0.30;;;;;;;23.60;46.30;100595.28;4402658;32;20081;-76
2021/06/25 04:33:34;;;;;;;0.73;0.30;;;;;;;23.90;46.62;100598.19;4403734;32;20103;-76
2021/06/25 04:35:59;;;;;;;0.62;0.32;;;;;;;23.76;45.62;100591.50;4406211;32;20398;-76
2021/06/25 04:38:25;;;;;;;0.25;0.20;;;;;;;23.71;46.60;100609.53;4403845;32;20129;-76
2021/06/25 04:40:51;;;;;;;0.20;0.10;;;;;;;23.71;45.95;100603.03;4406044;32;20119;-76
2021/06/25 04:43:19;;;;;;;0.60;0.37;;;;;;;23.77;46.60;100612.41;4405717;32;20081;-76
2021/06/25 04:45:45;;;;;;;1.10;0.25;;;;;;;24.03;46.05;100610.66;4405030;32;20149;-76
2021/06/25 04:48:14;;;;;;;1.62;0.40;;;;;;;23.98;46.98;100605.72;4403711;32;20050;-76
2021/06/25 04:50:41;;;;;;;3.25;0.60;;;;;;;24.05;46.80;100610.13;4406990;32;20045;-76
2021/06/25 04:53:08;;;;;;;1.48;0.40;;;;;;;24.25;47.19;100613.34;4407755;32;20164;-76
2021/06/25 04:55:41;;;;;;;1.98;0.80;;;;;;;24.27;47.36;100602.06;4405675;32;21486;-76
2021/06/25 04:58:10;;;;;;;1.15;0.22;;;;;;;24.29;47.45;100610.16;4405686;32;20042;-76
2021/06/25 05:00:36;;;;;;;0.30;0.25;;;;;;;24.46;47.23;100607.91;4406823;32;20076;-76
2021/06/25 05:03:02;;;;;;;2.62;0.40;;;;;;;24.37;47.27;100606.16;4404992;32;20113;-76
2021/06/25 05:05:27;;;;;;;0.82;0.30;;;;;;;24.44;47.33;100617.06;4404766;32;20140;-76
2021/06/25 05:07:53;;;;;;;0.50;0.22;;;;;;;24.43;47.41;100617.59;4404141;32;20022;-76
2021/06/25 05:10:19;;;;;;;3.65;0.37;;;;;;;24.26;46.98;100614.88;4405162;32;20081;-76
2021/06/25 05:12:45;;;;;;;0.43;0.20;;;;;;;24.40;47.25;100625.22;4391720;32;20108;-76
2021/06/25 05:15:11;;;;;;;0.80;0.30;;;;;;;24.33;47.25;100622.16;4408759;32;20030;-76
2021/06/25 05:17:37;;;;;;;0.80;0.30;;;;;;;24.46;46.81;100628.81;4403181;32;20087;-76
2021/06/25 05:20:04;;;;;;;0.98;0.40;;;;;;;24.33;47.10;100628.66;4405719;32;20089;-76
2021/06/25 05:22:30;;;;;;;2.05;0.10;;;;;;;24.59;46.38;100636.81;4403283;32;20129;-76
2021/06/25 05:24:56;;;;;;;0.73;0.30;;;;;;;24.61;46.36;100634.94;4404860;32;20038;-76
2021/06/25 05:27:22;;;;;;;0.32;0.20;;;;;;;24.42;46.15;100628.31;4404429;32;20077;-76
2021/06/25 05:29:48;;;;;;;0.65;0.30;;;;;;;24.47;45.59;100624.63;4407425;32;20112;-76
2021/06/25 05:32:14;;;;;;;1.33;0.50;;;;;;;24.26;45.52;100631.34;4403516;32;20038;-76
2021/06/25 05:34:39;;;;;;;0.47;0.15;;;;;;;24.21;44.79;100640.81;4401788;32;20038;-76
2021/06/25 05:37:05;;;;;;;0.25;0.10;;;;;;;24.32;45.12;100650.13;4404571;32;20073;-77
2021/06/25 05:39:31;;;;;;;0.28;0.10;;;;;;;24.11;45.23;100660.50;4403344;32;20093;-77
2021/06/25 05:41:56;;;;;;;0.30;0.20;;;;;;;24.22;45.59;100663.28;4405432;32;20083;-77
2021/06/25 05:44:22;;;;;;;0.10;0.10;;;;;;;23.98;44.60;100671.03;4405288;32;20034;-77
2021/06/25 05:46:48;;;;;;;0.45;0.10;;;;;;;24.03;44.51;100667.37;4403594;32;20163;-77
2021/06/25 05:49:15;;;;;;;0.65;0.10;;;;;;;24.01;44.58;100665.03;4405809;32;20085;-77
2021/06/25 05:51:41;;;;;;;0.30;0.10;;;;;;;23.95;44.47;100667.16;4400968;32;20045;-76
2021/06/25 05:54:06;;;;;;;0.57;0.30;;;;;;;23.87;44.47;100666.12;4390536;32;20085;-77
2021/06/25 05:56:32;;;;;;;2.15;0.40;;;;;;;24.08;44.96;100673.06;4406917;32;20054;-77
2021/06/25 05:58:58;;;;;;;1.37;0.40;;;;;;;24.29;45.50;100673.41;4404404;32;20088;-77
2021/06/25 06:01:23;;;;;;;0.40;0.20;;;;;;;24.10;45.42;100675.41;4401751;32;20997;-77
2021/06/25 06:03:49;;;;;;;1.70;0.50;;;;;;;23.80;44.38;100680.31;4403543;32;20046;-76
2021/06/25 06:06:15;;;;;;;1.20;0.20;;;;;;;23.44;45.25;100690.94;4386238;32;20062;-76
2021/06/25 06:08:40;;;;;;;1.83;0.40;;;;;;;23.40;45.72;100688.34;4405556;32;20034;-77
2021/06/25 06:11:06;;;;;;;0.57;0.40;;;;;;;23.58;45.48;100694.78;4403163;32;20499;-77
2021/06/25 06:13:33;;;;;;;1.00;0.80;;;;;;;23.38;46.06;100681.56;4400327;32;20076;-77
2021/06/25 06:15:58;;;;;;;0.60;0.40;;;;;;;23.60;46.60;100689.28;4401083;32;20356;-77
2021/06/25 06:18:43;;;;;;;0.73;0.47;;;;;;;23.64;46.10;100693.44;4388297;32;20118;-77
2021/06/25 06:21:12;;;;;;;;;;;;;;;23.44;46.78;100693.81;4401650;32;20045;-78
2021/06/25 06:32:01;;;;;;;0.82;0.20;;;;;;;23.26;48.79;100711.63;4388650;32;20004;-77
2021/06/25 06:34:34;;;;;;;0.80;0.30;;;;;;;22.75;49.59;100712.22;4408112;32;20095;-78
2021/06/25 06:36:59;;;;;;;0.40;0.10;;;;;;;22.65;49.70;100711.72;4397916;32;20133;-78
2021/06/25 06:39:25;;;;;;;0.28;0.10;;;;;;;23.06;49.47;100709.03;4403749;32;20089;-78
2021/06/25 06:41:51;;;;;;;0.17;0.10;;;;;;;22.85;49.34;100702.03;4404416;32;20101;-78
2021/06/25 06:44:16;;;;;;;0.75;0.20;;;;;;;22.84;48.88;100695.53;4400976;32;20078;-78
2021/06/25 06:46:42;;;;;;;0.73;0.22;;;;;;;23.57;48.23;100702.63;4393167;32;20034;-77
2021/06/25 06:49:08;;;;;;;1.15;0.32;;;;;;;23.87;47.98;100694.84;4399064;32;20112;-78
2021/06/25 06:51:34;;;;;;;0.65;0.40;;;;;;;23.99;47.95;100699.25;4397249;32;20053;-78
2021/06/25 06:54:01;;;;;;;2.70;0.30;;;;;;;24.29;47.42;100690.69;4398345;32;20681;-78
2021/06/25 06:56:27;;;;;;;1.45;0.32;;;;;;;24.14;47.77;100690.28;4393058;32;21116;-77
2021/06/25 06:58:56;;;;;;;0.75;0.30;;;;;;;24.21;47.89;100687.59;4387997;32;20155;-77
2021/06/25 07:01:23;;;;;;;1.52;0.30;;;;;;;24.52;48.13;100703.56;4392546;32;20125;-77
2021/06/25 07:03:49;;;;;;;1.75;0.55;;;;;;;24.49;46.46;100702.56;4397036;32;20090;-77
2021/06/25 07:06:15;;;;;;;2.17;0.57;;;;;;;24.72;46.77;100706.03;4379726;32;20535;-77
2021/06/25 07:08:41;;;;;;;2.17;0.30;;;;;;;24.67;46.31;100707.63;4395661;32;20082;-78
2021/06/25 07:11:08;;;;;;;0.20;0.20;;;;;;;24.01;46.66;100695.84;4389838;32;20108;-78
2021/06/25 07:13:33;;;;;;;0.62;0.32;;;;;;;24.11;45.68;100711.50;4393738;32;20097;-77
2021/06/25 07:15:59;;;;;;;1.95;0.47;;;;;;;24.43;46.67;100703.91;4393781;32;20138;-77
2021/06/25 07:18:26;;;;;;;0.40;0.30;;;;;;;24.31;46.03;100703.22;4390465;32;20169;-77
2021/06/25 07:20:52;;;;;;;0.32;0.20;;;;;;;24.33;46.15;100697.69;4392403;32;20097;-77
2021/06/25 07:23:18;;;;;;;0.30;0.20;;;;;;;24.37;46.33;100697.41;4392495;32;20146;-77
2021/06/25 07:25:44;;;;;;;2.05;0.35;;;;;;;24.63;46.02;100703.47;4393340;32;20098;-76
2021/06/25 07:28:10;;;;;;;3.60;0.30;;;;;;;24.41;45.50;100706.53;4390468;32;20061;-77
2021/06/25 07:30:36;;;;;;;4.87;0.82;;;;;;;25.08;45.02;100713.25;4389824;32;20129;-77
2021/06/25 07:33:03;;;;;;;1.67;0.40;;;;;;;25.37;44.46;100713.19;4389910;32;20154;-81
2021/06/25 07:35:29;;;;;;;0.60;0.50;;;;;;;25.89;42.84;100715.66;4378131;32;20164;-81
2021/06/25 07:37:55;;;;;;;1.37;0.43;;;;;;;25.76;43.88;100712.69;4394106;32;20041;-77
2021/06/25 07:40:21;;;;;;;0.82;0.28;;;;;;;25.54;42.67;100715.09;4390242;32;20107;-78
2021/06/25 07:42:47;;;;;;;0.60;0.37;;;;;;;25.41;43.58;100723.62;4390073;32;20089;-76
2021/06/25 07:45:13;;;;;;;0.80;0.30;;;;;;;25.01;44.15;100720.38;4392684;32;20475;-76
2021/06/25 07:47:41;;;;;;;0.35;0.30;;;;;;;25.35;44.18;100727.34;4392404;32;20540;-77
2021/06/25 07:50:10;;;;;;;1.42;0.40;;;;;;;25.37;44.65;100718.16;4393835;32;20213;-77
2021/06/25 07:52:36;;;;;;;3.30;0.40;;;;;;;24.84;44.39;100719.78;4393496;32;20152;-77
2021/06/25 07:55:04;;;;;;;2.08;0.55;;;;;;;24.95;44.46;100728.28;4391849;32;20132;-77
2021/06/25 07:57:29;;;;;;;1.48;0.60;;;;;;;25.12;43.70;100731.00;4393131;32;20069;-77
2021/06/25 07:59:55;;;;;;;0.65;0.57;;;;;;;24.85;43.27;100734.97;4394072;32;20117;-77
2021/06/25 08:02:21;;;;;;;0.85;0.57;;;;;;;24.17;44.36;100733.13;4392835;32;20552;-76
2021/06/25 08:04:47;;;;;;;0.80;0.60;;;;;;;24.34;45.07;100725.16;4393635;32;20066;-75
2021/06/25 08:07:15;;;;;;;1.83;0.75;;;;;;;24.75;44.01;100737.41;4395963;32;20077;-76
2021/06/25 08:09:42;;;;;;;1.85;0.77;;;;;;;25.02;43.88;100736.34;4395274;32;20310;-75
2021/06/25 08:12:09;;;;;;;1.70;0.30;;;;;;;24.98;43.45;100741.63;4380945;32;20421;-77
2021/06/25 08:14:36;;;;;;;1.05;0.50;;;;;;;24.60;43.90;100736.19;4396043;32;20505;-77
2021/06/25 08:17:03;;;;;;;3.12;0.40;;;;;;;25.11;43.29;100740.97;4378995;32;20117;-77
2021/06/25 08:19:29;;;;;;;0.50;0.30;;;;;;;25.12;43.55;100740.44;4394932;32;20112;-77
2021/06/25 08:21:55;;;;;;;1.48;0.70;;;;;;;24.72;43.33;100747.09;4393559;32;20042;-76
2021/06/25 08:24:23;;;;;;;0.55;0.40;;;;;;;25.25;43.58;100745.53;4393124;32;20128;-76
2021/06/25 08:26:51;;;;;;;0.88;0.30;;;;;;;25.55;42.99;100748.38;4394321;32;20200;-77
2021/06/25 08:29:18;;;;;;;3.12;0.60;;;;;;;25.51;43.17;100740.00;4394816;32;20252;-76
2021/06/25 08:31:44;;;;;;;1.08;0.45;;;;;;;25.37;42.40;100749.88;4391342;32;20097;-77
2021/06/25 08:34:12;;;;;;;1.50;0.40;;;;;;;25.53;43.17;100746.03;4395386;32;20080;-77
2021/06/25 08:36:38;;;;;;;1.10;0.40;;;;;;;25.70;42.45;100740.03;4393920;32;20106;-75
2021/06/25 08:39:05;;;;;;;1.25;0.40;;;;;;;25.74;42.68;100740.53;4389090;32;20139;-75
2021/06/25 08:41:35;;;;;;;1.95;0.40;;;;;;;25.59;42.90;100743.84;4392707;32;20094;-76
2021/06/25 08:44:01;;;;;;;0.70;0.60;;;;;;;25.43;43.94;100741.94;4391146;32;20046;-76
2021/06/25 08:46:30;;;;;;;4.57;0.98;;;;;;;25.32;43.18;100745.72;4394595;32;20058;-75
2021/06/25 08:48:58;;;;;;;0.50;0.50;;;;;;;25.32;43.91;100744.97;4391638;32;20054;-75
2021/06/25 08:51:25;;;;;;;2.25;0.47;;;;;;;25.76;42.30;100738.66;4393404;32;20138;-77
2021/06/25 08:53:51;;;;;;;1.92;0.80;;;;;;;25.74;42.45;100729.75;4393734;32;20073;-75
2021/06/25 08:56:18;;;;;;;1.77;0.60;;;;;;;25.89;41.96;100740.84;4394420;32;20131;-76
2021/06/25 08:58:44;;;;;;;3.17;0.73;;;;;;;25.91;42.01;100730.31;4392813;32;20536;-77
2021/06/25 09:01:11;;;;;;;2.67;0.82;;;;;;;25.67;42.47;100726.72;4389859;32;20074;-75
2021/06/25 09:03:40;;;;;;;1.65;0.45;;;;;;;25.72;42.05;100723.78;4390104;32;20058;-77
2021/06/25 09:06:11;;;;;;;0.50;0.50;;;;;;;25.34;42.04;100737.34;4395688;32;20163;-77
2021/06/25 09:08:38;;;;;;;2.22;0.50;;;;;;;25.00;42.64;100730.34;4393875;32;20908;-76
2021/06/25 09:16:35;;;;;;;0.62;0.62;;;;;;;26.09;40.89;100731.66;3977126;32;15047821;-77
2021/06/25 09:19:17;;;;;;;0.98;0.70;;;;;;;26.22;40.46;100729.63;4424990;32;20378;-76
2021/06/25 09:21:59;;;;;;;3.60;0.70;;;;;;;25.96;40.19;100725.78;4427676;32;20106;-78
2021/06/25 09:24:27;;;;;;;1.77;0.80;;;;;;;26.32;39.76;100721.34;4429461;32;20462;-78
2021/06/25 09:26:59;;;;;;;1.37;0.77;;;;;;;26.01;40.64;100728.63;4427494;32;20130;-80
2021/06/25 09:29:28;;;;;;;1.75;0.73;;;;;;;25.90;39.90;100720.12;4419244;32;20065;-76
2021/06/25 09:31:58;;;;;;;1.45;0.75;;;;;;;24.68;41.80;100729.38;4416107;32;20085;-78
2021/06/25 09:34:50;;;;;;;0.93;0.68;;;;;;;25.67;41.63;100724.63;4423614;32;20081;-80
2021/06/25 09:37:18;;;;;;;2.35;0.80;;;;;;;25.07;42.09;100723.97;4422955;32;21274;-81
2021/06/25 09:39:58;;;;;;;0.77;0.60;;;;;;;25.55;40.90;100737.59;4422869;32;20085;-76
2021/06/25 09:42:25;;;;;;;3.53;0.80;;;;;;;25.81;40.38;100729.16;4422025;32;20141;-77
2021/06/25 09:47:51;;;;;;;2.83;0.90;;;;;;;26.05;40.69;100737.72;3971752;32;15024006;-81
2021/06/25 09:50:19;;;;;;;1.10;0.73;;;;;;;26.05;40.69;100737.72;4424461;32;20548;-81
2021/06/25 10:04:02;;;;;;;1.10;0.73;;;;;;;26.87;39.27;100749.28;3970240;32;15022539;-79
2021/06/25 10:09:05;;;;;;;2.05;0.90;;;;;;;27.00;38.70;100755.13;3973303;32;15021706;-76
2021/06/25 10:11:33;;;;;;;3.75;0.80;;;;;;;27.00;38.70;100755.13;4423941;32;20033;-76
2021/06/25 10:14:03;;;;;;;3.50;0.68;;;;;;;25.95;40.02;100750.97;4425182;32;20045;-76
2021/06/25 10:16:29;;;;;;;0.95;0.62;;;;;;;25.14;41.09;100746.44;4427669;32;20121;-76
2021/06/25 10:18:57;;;;;;;3.75;1.23;;;;;;;25.86;40.23;100747.69;4425991;32;20553;-76
2021/06/25 10:21:26;;;;;;;3.75;0.90;;;;;;;26.22;39.80;100755.59;4423828;32;20061;-77
2021/06/25 10:23:55;;;;;;;2.72;0.73;;;;;;;26.48;40.04;100764.34;4426472;32;20123;-76
2021/06/25 10:26:22;;;;;;;1.33;0.73;;;;;;;25.85;39.68;100746.13;4424710;32;20034;-75
2021/06/25 10:28:50;;;;;;;4.12;1.35;;;;;;;26.44;40.03;100757.34;4424620;32;20428;-77
2021/06/25 10:31:21;;;;;;;1.55;0.70;;;;;;;26.09;39.93;100751.84;4424996;32;20076;-76
2021/06/25 10:33:47;;;;;;;4.80;1.00;;;;;;;25.29;41.23;100760.41;4424048;32;20558;-76
2021/06/25 10:36:15;;;;;;;1.67;1.08;;;;;;;25.84;40.49;100759.78;4425296;32;20081;-76
2021/06/25 10:38:43;;;;;;;4.62;0.95;;;;;;;26.28;40.21;100761.25;4424426;32;20503;-76
2021/06/25 10:41:12;;;;;;;2.45;0.73;;;;;;;26.65;39.24;100762.00;4424384;32;20104;-76
2021/06/25 10:43:54;;;;;;;1.58;0.65;;;;;;;26.83;38.92;100761.19;4425762;32;20629;-76
2021/06/25 10:46:38;;;;;;;3.95;0.90;;;;;;;27.40;37.91;100761.72;4426343;32;20081;-75
2021/06/25 10:49:10;;;;;;;0.60;0.43;;;;;;;27.47;37.30;100758.97;4425041;32;20538;-76
2021/06/25 10:51:39;;;;;;;4.45;1.05;;;;;;;26.94;38.26;100751.56;4423972;32;20076;-75
2021/06/25 10:54:24;;;;;;;1.25;0.62;;;;;;;27.15;38.12;100773.47;4424438;32;20059;-74
2021/06/25 10:59:29;;;;;;;0.85;0.70;;;;;;;26.78;39.39;100772.81;3971033;32;15023799;-76
2021/06/25 11:01:57;;;;;;;2.72;0.82;;;;;;;26.78;39.39;100772.81;4409849;32;20381;-74
2021/06/25 11:04:43;;;;;;;5.78;0.90;;;;;;;26.47;39.65;100762.81;4402113;32;20244;-75
2021/06/25 11:07:13;;;;;;;2.12;0.80;;;;;;;26.92;38.78;100766.53;4399043;32;20108;-79
2021/06/25 11:10:00;;;;;;;4.07;1.37;;;;;;;26.89;38.61;100773.41;4401001;32;20092;-79
2021/06/25 11:17:57;;;;;;;4.25;0.80;;;;;;;26.04;39.72;100778.66;3970478;32;15039854;-76
2021/06/25 11:34:01;;;;;;;2.92;1.20;;;;;;;25.89;39.65;100775.44;3977194;32;15026944;-76
2021/06/25 11:36:51;;;;;;;1.95;1.00;;;;;;;25.58;40.00;100779.75;4436804;32;20099;-75
2021/06/25 11:44:38;;;;;;;3.33;0.73;;;;;;;26.13;39.25;100779.06;3977317;32;15025586;-76
2021/06/25 11:52:35;;;;;;;2.90;1.08;;;;;;;26.39;39.19;100769.75;3975154;32;15026273;-77
2021/06/25 11:55:05;;;;;;;3.00;0.70;;;;;;;26.39;39.19;100769.75;4426009;32;20117;-79
2021/06/25 11:57:35;;;;;;;1.08;0.70;;;;;;;26.26;38.74;100773.34;4426083;32;20049;-76
2021/06/25 12:02:48;;;;;;;6.45;1.20;;;;;;;26.54;38.16;100779.47;3967759;32;15029676;-77
2021/06/25 12:08:11;;;;;;;2.33;0.60;;;;;;;26.70;38.04;100760.38;3966129;32;15023518;-76
2021/06/25 12:10:38;;;;;;;3.80;1.00;;;;;;;26.70;38.04;100760.38;4412245;32;20134;-75
2021/06/25 12:13:04;;;;;;;1.35;0.98;;;;;;;26.21;40.38;100762.69;4412633;32;20045;-76
2021/06/25 12:15:30;;;;;;;5.32;2.03;;;;;;;25.88;nan;100762.34;4413624;32;20098;-79
2021/06/25 12:17:58;;;;;;;2.65;0.93;;;;;;;25.54;41.65;100764.09;4409969;32;20089;-78
2021/06/25 12:20:26;;;;;;;4.05;1.00;;;;;;;25.55;42.31;100772.19;4414688;32;20584;-75
2021/06/25 12:28:14;;;;;;;2.97;1.50;;;;;;;25.57;42.86;100786.84;3964636;32;15024928;-75
2021/06/25 12:30:52;;;;;;;1.98;1.23;;;;;;;25.57;42.86;100786.84;4411578;32;20085;-78
2021/06/25 12:33:24;;;;;;;23.58;1.45;;;;;;;25.52;42.96;100787.69;4413020;32;20080;-76
2021/06/25 12:35:51;;;;;;;5.47;1.00;;;;;;;25.27;43.60;100784.00;4418191;32;20061;-79
2021/06/25 12:38:19;;;;;;;2.42;0.95;;;;;;;24.74;43.15;100784.78;4407489;32;20215;-76